PDT,Max TemperatureF,Mean TemperatureF,Min TemperatureF,Max Dew PointF,MeanDew PointF,Min DewpointF,Max Humidity, Mean Humidity, Min Humidity, Max Sea Level PressureIn, Mean Sea Level PressureIn, Min Sea Level PressureIn, Max VisibilityMiles, Mean VisibilityMiles, Min VisibilityMiles, Max Wind SpeedMPH, Mean Wind SpeedMPH, Max Gust SpeedMPH,PrecipitationIn, CloudCover, Events, WindDirDegrees
2012-9-1,77,65,53,38,33,25,54,35,15,30.02,29.94,29.80,10,10,10,20,6,32,0.00,0,,219
2012-9-2,76,64,51,37,33,28,54,37,19,30.08,30.04,30.00,10,10,10,17,5,24,0.00,0,,231
2012-9-3,81,63,45,40,36,30,76,47,17,30.11,30.04,29.96,10,10,10,17,4,24,0.00,0,,303
2012-9-4,81,65,48,42,38,34,71,45,18,30.15,30.09,30.03,10,10,10,14,3,33,0.00,0,,273
2012-9-5,82,64,46,46,40,35,77,49,20,30.08,29.99,29.86,10,10,8,24,3,38,0.00,1,,57
2012-9-6,77,63,48,46,42,39,80,54,27,30.13,30.05,29.97,10,10,10,15,4,18,0.00,0,,54
2012-9-7,82,65,47,45,41,37,80,50,20,30.25,30.19,30.14,10,10,10,8,2,21,0.00,0,,24
2012-9-8,89,68,46,47,37,17,80,44,7,30.18,30.05,29.85,10,10,10,8,2,13,0.00,0,,58
2012-9-9,84,71,57,46,40,30,45,32,18,29.83,29.79,29.76,10,10,10,25,9,31,T,2,,216
2012-9-10,70,60,49,44,33,19,66,41,15,30.04,29.94,29.84,10,9,5,28,13,37,T,4,Rain,229
2012-9-11,67,52,37,30,26,19,76,47,18,30.26,30.20,30.05,10,9,7,15,2,18,0.00,0,,274
2012-9-12,71,54,36,33,29,23,76,47,17,30.43,30.37,30.28,10,10,8,10,2,14,0.00,0,,30
2012-9-13,82,61,40,40,35,32,76,47,17,30.40,30.30,30.18,10,10,10,7,2,10,0.00,0,,22
2012-9-14,85,65,44,43,38,30,83,49,14,30.18,30.08,29.97,10,8,5,7,2,9,0.00,0,,36
2012-9-15,83,66,48,42,38,32,66,41,16,30.08,30.04,30.00,9,7,2,9,1,14,0.00,0,,53
2012-9-16,81,63,45,42,38,28,82,49,15,30.17,30.11,30.06,10,9,7,8,2,13,0.00,0,,60
2012-9-17,80,61,42,40,35,27,76,45,14,30.17,30.11,30.07,10,10,5,7,2,12,0.00,0,,34
2012-9-18,85,65,44,40,36,28,76,45,13,30.13,30.06,29.99,10,10,8,9,2,13,0.00,0,,27
2012-9-19,83,65,46,43,39,35,76,47,18,30.14,30.09,30.05,10,8,3,6,1,8,0.00,0,,55
2012-9-20,87,67,47,45,40,34,80,48,15,30.16,30.09,30.03,10,7,4,7,1,9,0.00,0,,44
2012-9-21,86,67,48,46,43,41,80,51,22,30.09,30.01,29.93,10,10,7,9,2,12,0.00,0,,14
2012-9-22,81,65,48,47,44,43,83,55,26,30.04,29.98,29.92,10,8,2,12,2,16,0.00,0,,271
2012-9-23,71,62,52,49,43,40,67,51,35,30.09,30.04,29.97,10,10,8,13,3,17,T,1,,260
2012-9-24,76,62,47,45,44,42,86,59,31,30.11,30.04,29.96,10,8,6,9,1,12,0.00,0,,44
2012-9-25,73,60,48,46,45,44,86,61,34,30.01,29.98,29.94,10,9,4,8,2,,0.00,0,,12
2012-9-26,75,60,45,46,43,39,86,58,29,30.10,30.05,30.01,10,9,7,8,2,12,0.00,0,,39
2012-9-27,78,62,45,47,43,42,92,61,29,30.12,30.04,29.97,10,9,4,7,1,8,0.00,0,,55
2012-9-28,80,63,46,47,42,35,93,57,21,30.00,29.95,29.89,10,9,7,12,2,14,0.00,0,,15
2012-9-29,78,65,52,45,43,40,71,50,29,30.09,30.03,29.96,10,10,6,13,4,18,0.00,1,,253
2012-9-30,77,63,48,46,36,24,80,48,15,30.29,30.23,30.09,10,10,10,10,2,16,0.00,0,,286